createdAt,value
2018-03-03T00:01:40.839Z,0.65
2018-03-03T00:04:08.334Z,0.61
2018-03-03T00:06:35.911Z,0.55
2018-03-03T00:09:03.449Z,0.55
2018-03-03T00:11:30.998Z,0.57
2018-03-03T00:13:58.550Z,0.56
2018-03-03T00:16:26.061Z,0.52
2018-03-03T00:18:53.637Z,0.41
2018-03-03T00:21:21.247Z,0.40
2018-03-03T00:23:48.761Z,0.30
2018-03-03T00:26:16.383Z,0.23
2018-03-03T00:28:43.880Z,0.19
2018-03-03T00:31:11.458Z,0.17
2018-03-03T00:33:38.978Z,-0.02
2018-03-03T00:36:06.516Z,-0.14
2018-03-03T00:38:34.030Z,-0.27
2018-03-03T00:41:01.653Z,-0.41
2018-03-03T00:43:29.232Z,-0.47
2018-03-03T00:45:56.754Z,-0.57
2018-03-03T00:48:24.274Z,-0.69
2018-03-03T00:50:51.787Z,-0.77
2018-03-03T00:53:19.342Z,-0.81
2018-03-03T00:55:46.982Z,-0.90
2018-03-03T00:58:14.486Z,-0.98
2018-03-03T01:00:42.052Z,-1.10
2018-03-03T01:03:09.577Z,-1.18
2018-03-03T01:05:37.138Z,-1.21
2018-03-03T01:08:04.687Z,-1.29
2018-03-03T01:10:32.206Z,-1.30
2018-03-03T01:12:59.745Z,-1.32
2018-03-03T01:15:27.255Z,-1.38
2018-03-03T01:17:54.773Z,-1.36
2018-03-03T01:20:22.315Z,-1.43
2018-03-03T01:22:49.851Z,-1.46
2018-03-03T01:25:17.395Z,-1.49
2018-03-03T01:27:44.931Z,-1.54
2018-03-03T01:30:12.513Z,-1.57
2018-03-03T01:32:40.037Z,-1.59
2018-03-03T01:35:07.584Z,-1.58
2018-03-03T01:37:35.117Z,-1.64
2018-03-03T01:40:02.649Z,-1.66
2018-03-03T01:42:30.157Z,-1.72
2018-03-03T01:44:57.659Z,-1.73
2018-03-03T01:47:25.176Z,-1.78
2018-03-03T01:49:52.737Z,-1.84
2018-03-03T01:52:20.266Z,-1.85
2018-03-03T01:54:47.823Z,-1.92
2018-03-03T01:57:15.359Z,-1.90
2018-03-03T01:59:42.885Z,-1.88
2018-03-03T02:02:10.443Z,-1.89
2018-03-03T02:04:37.970Z,-1.83
2018-03-03T02:07:05.502Z,-1.87
2018-03-03T02:09:33.025Z,-1.84
2018-03-03T02:12:00.539Z,-1.92
2018-03-03T02:14:28.119Z,-1.83
2018-03-03T02:16:55.667Z,-1.81
2018-03-03T02:19:23.209Z,-1.92
2018-03-03T02:21:50.745Z,-1.91
2018-03-03T02:24:18.267Z,-2.00
2018-03-03T02:26:45.800Z,-2.06
2018-03-03T02:29:13.365Z,-2.12
2018-03-03T02:31:40.936Z,-2.09
2018-03-03T02:34:08.499Z,-2.07
2018-03-03T02:36:36.034Z,-2.09
2018-03-03T02:39:04.146Z,-2.16
2018-03-03T02:41:31.720Z,-2.23
2018-03-03T02:43:59.243Z,-2.30
2018-03-03T02:46:26.800Z,-2.27
2018-03-03T02:48:54.316Z,-2.22
2018-03-03T02:51:21.837Z,-2.26
2018-03-03T02:53:49.373Z,-2.23
2018-03-03T02:56:16.891Z,-2.23
2018-03-03T02:58:44.470Z,-2.18
2018-03-03T03:01:12.054Z,-2.18
2018-03-03T03:03:39.692Z,-2.16
2018-03-03T03:06:07.236Z,-2.26
2018-03-03T03:08:34.786Z,-2.29
2018-03-03T03:11:02.309Z,-2.37
2018-03-03T03:13:29.848Z,-2.40
2018-03-03T03:15:57.397Z,-2.41
2018-03-03T03:18:24.923Z,-2.39
2018-03-03T03:20:52.483Z,-2.45
2018-03-03T03:23:20.029Z,-2.45
2018-03-03T03:25:47.612Z,-2.52
2018-03-03T03:28:15.168Z,-2.50
2018-03-03T03:30:42.697Z,-2.50
2018-03-03T03:33:10.238Z,-2.53
2018-03-03T03:35:37.757Z,-2.52
2018-03-03T03:38:05.379Z,-2.51
2018-03-03T03:40:32.919Z,-2.52
2018-03-03T03:43:00.443Z,-2.46
2018-03-03T03:45:27.979Z,-2.38
2018-03-03T03:47:55.538Z,-2.47
2018-03-03T03:50:23.083Z,-2.53
2018-03-03T03:52:50.633Z,-2.59
2018-03-03T03:55:18.204Z,-2.65
2018-03-03T03:57:45.726Z,-2.73
2018-03-03T04:00:13.282Z,-2.72
2018-03-03T04:02:40.848Z,-2.81
2018-03-03T04:05:08.403Z,-2.81
2018-03-03T04:07:35.955Z,-2.85
2018-03-03T04:10:03.490Z,-2.83
2018-03-03T04:12:31.053Z,-2.76
2018-03-03T04:14:58.580Z,-2.68
2018-03-03T04:17:26.141Z,-2.59
2018-03-03T04:19:53.655Z,-2.55
2018-03-03T04:22:21.386Z,-2.53
2018-03-03T04:24:48.928Z,-2.53
2018-03-03T04:27:16.546Z,-2.56
2018-03-03T04:29:44.058Z,-2.55
2018-03-03T04:32:11.620Z,-2.57
2018-03-03T04:34:39.152Z,-2.59
2018-03-03T04:37:06.713Z,-2.62
2018-03-03T04:39:34.227Z,-2.64
2018-03-03T04:42:01.800Z,-2.67
2018-03-03T04:44:29.374Z,-2.58
2018-03-03T04:46:56.904Z,-2.60
2018-03-03T04:49:24.443Z,-2.63
2018-03-03T04:51:52.022Z,-2.71
2018-03-03T04:54:19.565Z,-2.76
2018-03-03T04:56:47.107Z,-2.74
2018-03-03T05:02:26.661Z,-2.79
2018-03-03T05:04:59.777Z,-2.90
2018-03-03T05:10:30.448Z,-2.98
2018-03-03T05:16:08.205Z,-2.97
2018-03-03T05:21:46.898Z,-2.97
2018-03-03T05:24:19.937Z,-3.00
2018-03-03T05:26:53.113Z,-3.04
2018-03-03T05:29:26.330Z,-3.10
2018-03-03T05:35:05.680Z,-3.14
2018-03-03T05:37:38.775Z,-3.12
2018-03-03T05:40:11.849Z,-3.12
2018-03-03T05:42:45.000Z,-3.10
2018-03-03T05:45:18.185Z,-3.06
2018-03-03T05:47:47.263Z,-3.12
2018-03-03T05:50:16.606Z,-3.14
2018-03-03T05:55:54.693Z,-3.21
2018-03-03T05:58:27.842Z,-3.25
2018-03-03T06:04:02.186Z,-3.17
2018-03-03T06:06:35.201Z,-3.07
2018-03-03T06:09:08.459Z,-3.12
2018-03-03T06:11:35.999Z,-3.07
2018-03-03T06:14:03.576Z,-3.01
2018-03-03T06:16:31.143Z,-2.99
2018-03-03T06:18:58.670Z,-3.02
2018-03-03T06:21:26.209Z,-3.00
2018-03-03T06:23:53.733Z,-2.97
2018-03-03T06:26:21.383Z,-2.94
2018-03-03T06:28:48.957Z,-2.94
2018-03-03T06:31:16.597Z,-2.88
2018-03-03T06:33:44.135Z,-2.89
2018-03-03T06:36:11.662Z,-2.87
2018-03-03T06:38:39.198Z,-2.88
2018-03-03T06:41:06.738Z,-2.85
2018-03-03T06:43:34.281Z,-2.77
2018-03-03T06:46:01.819Z,-2.77
2018-03-03T06:48:29.394Z,-2.69
2018-03-03T06:50:56.919Z,-2.74
2018-03-03T06:53:24.518Z,-2.73
2018-03-03T06:55:52.066Z,-2.70
2018-03-03T06:58:19.575Z,-2.64
2018-03-03T07:00:47.130Z,-2.60
2018-03-03T07:03:14.675Z,-2.61
2018-03-03T07:05:42.214Z,-2.59
2018-03-03T07:08:09.742Z,-2.52
2018-03-03T07:10:37.298Z,-2.50
2018-03-03T07:13:04.845Z,-2.42
2018-03-03T07:15:32.940Z,-2.33
2018-03-03T07:18:00.482Z,-2.21
2018-03-03T07:20:28.041Z,-2.08
2018-03-03T07:22:55.595Z,-1.83
2018-03-03T07:25:23.148Z,-1.84
2018-03-03T07:27:50.684Z,-1.71
2018-03-03T07:30:18.254Z,-1.53
2018-03-03T07:32:45.783Z,-1.24
2018-03-03T07:35:13.295Z,-1.03
2018-03-03T07:37:40.901Z,-0.83
2018-03-03T07:40:08.480Z,-0.58
2018-03-03T07:42:36.001Z,-0.38
2018-03-03T07:45:03.577Z,-0.13
2018-03-03T07:47:31.107Z,0.05
2018-03-03T07:49:58.633Z,0.44
2018-03-03T07:52:27.193Z,0.51
2018-03-03T07:54:54.799Z,0.92
2018-03-03T07:57:22.496Z,0.98
2018-03-03T07:59:53.786Z,1.17
2018-03-03T08:02:21.398Z,1.38
2018-03-03T08:04:56.488Z,1.53
2018-03-03T08:07:24.596Z,1.86
2018-03-03T08:09:52.217Z,2.21
2018-03-03T08:12:19.743Z,2.05
2018-03-03T08:14:47.314Z,2.17
2018-03-03T08:17:14.842Z,2.03
2018-03-03T08:19:42.356Z,2.02
2018-03-03T08:22:10.076Z,2.20
2018-03-03T08:24:37.824Z,1.94
2018-03-03T08:27:05.428Z,1.96
2018-03-03T08:29:32.958Z,1.89
2018-03-03T08:32:00.493Z,2.02
2018-03-03T08:34:28.000Z,1.76
2018-03-03T08:36:55.551Z,1.81
2018-03-03T08:39:23.071Z,1.77
2018-03-03T08:41:51.825Z,1.87
2018-03-03T08:44:19.523Z,2.22
2018-03-03T08:46:47.146Z,2.15
2018-03-03T08:49:14.853Z,2.60
2018-03-03T08:51:42.667Z,2.74
2018-03-03T08:54:20.640Z,2.91
2018-03-03T08:56:48.154Z,3.19
2018-03-03T08:59:18.227Z,3.12
2018-03-03T09:01:45.857Z,3.58
2018-03-03T09:04:14.475Z,3.66
2018-03-03T09:06:45.958Z,3.93
2018-03-03T09:09:13.497Z,3.66
2018-03-03T09:11:41.065Z,3.78
2018-03-03T09:14:12.075Z,3.70
2018-03-03T09:16:39.623Z,3.83
2018-03-03T09:19:07.159Z,3.59
2018-03-03T09:21:34.728Z,3.65
2018-03-03T09:24:02.264Z,3.63
2018-03-03T09:26:49.874Z,3.89
2018-03-03T09:29:17.400Z,3.97
2018-03-03T09:31:45.354Z,3.99
2018-03-03T09:34:12.894Z,4.06
2018-03-03T09:36:40.437Z,4.00
2018-03-03T09:39:08.029Z,4.21
2018-03-03T09:41:35.624Z,4.35
2018-03-03T09:46:42.653Z,4.77
2018-03-03T09:49:10.269Z,4.88
2018-03-03T09:51:37.791Z,4.92
2018-03-03T09:54:05.333Z,5.23
2018-03-03T09:56:32.854Z,5.38
2018-03-03T09:59:00.379Z,5.68
2018-03-03T10:01:27.984Z,5.86
2018-03-03T10:03:55.489Z,5.80
2018-03-03T10:06:23.371Z,5.60
2018-03-03T10:08:50.917Z,5.98
2018-03-03T10:11:21.898Z,6.00
2018-03-03T10:13:49.498Z,6.17
2018-03-03T10:16:17.114Z,6.24
2018-03-03T10:18:44.648Z,6.35
2018-03-03T10:21:12.176Z,6.63
2018-03-03T10:23:39.705Z,6.53
2018-03-03T10:26:07.292Z,6.76
2018-03-03T10:28:34.996Z,6.78
2018-03-03T10:31:02.518Z,7.06
2018-03-03T10:33:30.100Z,7.25
2018-03-03T10:35:57.631Z,7.18
2018-03-03T10:38:25.370Z,7.14
2018-03-03T10:40:52.926Z,7.26
2018-03-03T10:43:20.519Z,7.67
2018-03-03T10:45:48.045Z,7.58
2018-03-03T10:48:15.564Z,7.85
2018-03-03T10:50:43.124Z,7.94
2018-03-03T10:53:10.725Z,7.80
2018-03-03T10:55:38.243Z,8.15
2018-03-03T10:58:05.777Z,8.13
2018-03-03T11:00:33.333Z,7.83
2018-03-03T11:03:00.881Z,8.02
2018-03-03T11:05:28.386Z,8.07
2018-03-03T11:07:55.978Z,8.34
2018-03-03T11:10:23.558Z,8.49
2018-03-03T11:12:51.082Z,8.57
2018-03-03T11:15:18.619Z,8.81
2018-03-03T11:17:46.149Z,8.58
2018-03-03T11:20:13.662Z,8.61
2018-03-03T11:22:41.264Z,8.95
2018-03-03T11:25:08.775Z,9.31
2018-03-03T11:27:36.294Z,9.32
2018-03-03T11:30:04.851Z,9.61
2018-03-03T11:32:32.527Z,9.45
2018-03-03T11:35:00.070Z,9.33
2018-03-03T11:37:27.592Z,9.79
2018-03-03T11:39:55.145Z,9.55
2018-03-03T11:42:22.660Z,10.03
2018-03-03T11:44:50.231Z,10.38
2018-03-03T11:47:18.203Z,10.37
2018-03-03T11:49:45.767Z,10.58
2018-03-03T11:52:13.359Z,11.04
2018-03-03T11:54:40.899Z,11.51
2018-03-03T11:57:08.539Z,11.70
2018-03-03T11:59:36.132Z,12.14
2018-03-03T12:02:03.695Z,12.45
2018-03-03T12:04:31.251Z,13.10
2018-03-03T12:06:58.783Z,13.07
2018-03-03T12:09:26.655Z,13.51
2018-03-03T12:11:54.234Z,14.06
2018-03-03T12:14:21.789Z,14.72
2018-03-03T12:16:49.313Z,15.50
2018-03-03T12:19:17.047Z,16.47
2018-03-03T12:21:44.620Z,17.85
2018-03-03T12:24:12.143Z,18.68
2018-03-03T12:26:39.663Z,20.67
2018-03-03T12:29:07.152Z,22.15
2018-03-03T12:31:34.659Z,23.87
2018-03-03T12:34:02.172Z,24.04
2018-03-03T12:36:29.750Z,23.31
2018-03-03T12:38:57.296Z,22.13
2018-03-03T12:41:24.832Z,21.87
2018-03-03T12:43:52.367Z,21.43
2018-03-03T12:46:19.845Z,20.79
2018-03-03T12:48:47.340Z,22.95
2018-03-03T12:51:14.845Z,24.21
2018-03-03T12:53:42.368Z,25.34
2018-03-03T12:56:09.900Z,25.17
2018-03-03T12:58:37.435Z,25.96
2018-03-03T13:01:05.010Z,27.35
2018-03-03T13:03:32.532Z,28.01
2018-03-03T13:06:00.349Z,27.93
2018-03-03T13:08:27.865Z,27.75
2018-03-03T13:10:58.322Z,27.35
2018-03-03T13:13:25.850Z,26.63
2018-03-03T13:15:53.342Z,27.24
2018-03-03T13:18:20.877Z,27.01
2018-03-03T13:20:48.432Z,27.53
2018-03-03T13:23:16.048Z,25.45
2018-03-03T13:25:43.528Z,23.72
2018-03-03T13:28:11.060Z,22.81
2018-03-03T13:30:38.566Z,22.88
2018-03-03T13:33:06.084Z,24.76
2018-03-03T13:35:33.590Z,27.67
2018-03-03T13:38:01.110Z,27.60
2018-03-03T13:40:28.878Z,29.31
2018-03-03T13:42:56.446Z,30.94
2018-03-03T13:45:23.924Z,30.47
2018-03-03T13:47:51.627Z,31.63
2018-03-03T13:50:21.001Z,33.41
2018-03-03T13:52:48.487Z,31.30
2018-03-03T13:55:17.181Z,27.84
2018-03-03T13:57:44.720Z,29.51
2018-03-03T14:00:12.185Z,30.36
2018-03-03T14:02:39.920Z,30.33
2018-03-03T14:05:07.499Z,28.40
2018-03-03T14:07:35.404Z,28.54
2018-03-03T14:10:02.921Z,27.71
2018-03-03T14:12:30.426Z,25.89
2018-03-03T14:15:00.650Z,24.68
2018-03-03T14:17:28.221Z,23.31
2018-03-03T14:19:55.723Z,20.87
2018-03-03T14:22:23.254Z,21.22
2018-03-03T14:24:51.777Z,20.53
2018-03-03T14:27:19.283Z,20.44
2018-03-03T14:29:47.229Z,19.82
2018-03-03T14:32:17.093Z,19.87
2018-03-03T14:34:44.590Z,19.64
2018-03-03T14:37:12.106Z,19.22
2018-03-03T14:39:39.704Z,19.46
2018-03-03T14:42:07.350Z,18.58
2018-03-03T14:44:34.853Z,18.06
2018-03-03T14:47:02.385Z,17.58
2018-03-03T14:49:30.030Z,17.12
2018-03-03T14:51:57.586Z,16.37
2018-03-03T14:54:25.143Z,16.28
2018-03-03T14:56:52.641Z,15.78
2018-03-03T14:59:20.192Z,15.60
2018-03-03T15:01:47.715Z,15.41
2018-03-03T15:04:15.402Z,15.47
2018-03-03T15:06:42.971Z,14.79
2018-03-03T15:09:10.494Z,14.80
2018-03-03T15:11:38.080Z,13.78
2018-03-03T15:14:05.613Z,13.98
2018-03-03T15:16:33.128Z,13.73
2018-03-03T15:19:00.632Z,13.37
2018-03-03T15:21:28.211Z,13.30
2018-03-03T15:23:55.698Z,13.10
2018-03-03T15:26:23.206Z,12.86
2018-03-03T15:28:50.750Z,12.53
2018-03-03T15:31:18.281Z,12.35
2018-03-03T15:33:45.787Z,12.01
2018-03-03T15:36:13.308Z,11.70
2018-03-03T15:38:40.810Z,11.67
2018-03-03T15:41:08.347Z,11.45
2018-03-03T15:43:35.899Z,11.32
2018-03-03T15:46:03.433Z,11.08
2018-03-03T15:48:30.982Z,10.95
2018-03-03T15:50:58.545Z,10.84
2018-03-03T15:53:26.182Z,10.62
2018-03-03T15:55:53.693Z,10.29
2018-03-03T15:58:21.210Z,10.17
2018-03-03T16:00:48.724Z,10.13
2018-03-03T16:03:16.239Z,9.88
2018-03-03T16:05:43.782Z,9.76
2018-03-03T16:08:11.277Z,9.55
2018-03-03T16:10:38.799Z,9.50
2018-03-03T16:13:06.291Z,9.50
2018-03-03T16:15:33.844Z,9.39
2018-03-03T16:18:01.430Z,9.25
2018-03-03T16:20:28.909Z,9.21
2018-03-03T16:22:56.476Z,9.14
2018-03-03T16:25:24.009Z,9.04
2018-03-03T16:27:51.536Z,8.94
2018-03-03T16:30:19.048Z,8.92
2018-03-03T16:32:46.553Z,8.84
2018-03-03T16:35:14.051Z,8.67
2018-03-03T16:37:41.574Z,8.66
2018-03-03T16:40:09.075Z,8.54
2018-03-03T16:42:36.644Z,8.52
2018-03-03T16:45:04.217Z,8.46
2018-03-03T16:47:31.721Z,8.40
2018-03-03T16:49:59.254Z,8.28
2018-03-03T16:52:26.776Z,8.22
2018-03-03T16:54:54.287Z,8.18
2018-03-03T16:57:21.823Z,8.11
2018-03-03T16:59:49.322Z,8.02
2018-03-03T17:02:16.968Z,8.00
2018-03-03T17:04:44.474Z,7.95
2018-03-03T17:07:12.054Z,7.92
2018-03-03T17:09:45.051Z,7.89
2018-03-03T17:12:14.148Z,7.82
2018-03-03T17:14:41.617Z,7.74
2018-03-03T17:17:10.881Z,7.59
2018-03-03T17:19:39.629Z,7.46
2018-03-03T17:22:08.998Z,7.45
2018-03-03T17:24:40.260Z,7.39
2018-03-03T17:27:09.154Z,7.31
2018-03-03T17:29:38.456Z,7.22
2018-03-03T17:32:06.399Z,7.18
2018-03-03T17:34:33.912Z,7.13
2018-03-03T17:37:01.453Z,7.04
2018-03-03T17:39:29.518Z,6.96
2018-03-03T17:41:58.725Z,6.93
2018-03-03T17:44:27.911Z,6.82
2018-03-03T17:46:56.243Z,6.83
2018-03-03T17:49:23.760Z,6.79
2018-03-03T17:51:54.411Z,6.74
2018-03-03T17:54:22.414Z,6.74
2018-03-03T17:56:50.019Z,6.69
2018-03-03T17:59:17.543Z,6.66
2018-03-03T18:01:45.125Z,6.70
2018-03-03T18:04:24.929Z,6.59
2018-03-03T18:06:55.160Z,6.62
2018-03-03T18:09:22.635Z,6.61
2018-03-03T18:11:59.039Z,6.55
2018-03-03T18:14:26.731Z,6.53
2018-03-03T18:16:54.358Z,6.48
2018-03-03T18:19:36.908Z,6.43
2018-03-03T18:22:04.499Z,6.43
2018-03-03T18:24:37.320Z,6.40
2018-03-03T18:27:04.860Z,6.42
2018-03-03T18:29:32.383Z,6.39
2018-03-03T18:31:59.919Z,6.37
2018-03-03T18:34:27.540Z,6.41
2018-03-03T18:36:56.920Z,6.35
2018-03-03T18:39:24.566Z,6.23
2018-03-03T18:41:52.134Z,6.22
2018-03-03T18:44:20.014Z,6.21
2018-03-03T18:46:47.661Z,6.26
2018-03-03T18:49:15.209Z,6.21
2018-03-03T18:51:42.721Z,6.19
2018-03-03T18:54:11.109Z,6.15
2018-03-03T18:56:40.400Z,6.11
2018-03-03T18:59:09.330Z,6.12
2018-03-03T19:01:37.022Z,6.11
2018-03-03T19:04:04.618Z,6.10
2018-03-03T19:06:32.218Z,6.06
2018-03-03T19:08:59.850Z,6.05
2018-03-03T19:11:27.399Z,5.95
2018-03-03T19:13:55.612Z,5.95
2018-03-03T19:16:23.774Z,5.98
2018-03-03T19:18:51.328Z,5.92
2018-03-03T19:21:19.004Z,5.87
2018-03-03T19:23:46.485Z,5.85
2018-03-03T19:26:14.075Z,5.83
2018-03-03T19:28:41.620Z,5.84
2018-03-03T19:31:09.153Z,5.70
2018-03-03T19:33:36.719Z,5.65
2018-03-03T19:36:04.273Z,5.65
2018-03-03T19:38:31.822Z,5.53
2018-03-03T19:40:59.379Z,5.48
2018-03-03T19:43:26.883Z,5.54
2018-03-03T19:45:54.401Z,5.32
2018-03-03T19:48:21.919Z,5.23
2018-03-03T19:50:49.445Z,5.24
2018-03-03T19:53:17.014Z,5.22
2018-03-03T19:58:47.495Z,5.06
2018-03-03T20:01:14.986Z,5.11
2018-03-03T20:03:42.541Z,5.10
2018-03-03T20:06:10.089Z,5.05
2018-03-03T20:08:37.659Z,5.09
2018-03-03T20:11:05.244Z,5.10
2018-03-03T20:13:32.810Z,5.13
2018-03-03T20:16:00.340Z,5.11
2018-03-03T20:18:27.908Z,5.10
2018-03-03T20:20:55.549Z,5.08
2018-03-03T20:23:23.089Z,5.08
2018-03-03T20:25:50.756Z,5.05
2018-03-03T20:28:18.303Z,5.02
2018-03-03T20:30:45.951Z,5.07
2018-03-03T20:33:13.650Z,5.00
2018-03-03T20:35:41.361Z,4.92
2018-03-03T20:38:08.984Z,4.90
2018-03-03T20:40:36.521Z,4.81
2018-03-03T20:43:04.055Z,4.85
2018-03-03T20:45:31.604Z,4.78
2018-03-03T20:47:59.128Z,4.79
2018-03-03T20:50:26.687Z,4.73
2018-03-03T20:52:54.402Z,4.68
2018-03-03T20:55:21.940Z,4.67
2018-03-03T20:57:49.492Z,4.70
2018-03-03T21:00:17.033Z,4.68
2018-03-03T21:02:44.550Z,4.68
2018-03-03T21:05:12.058Z,4.70
2018-03-03T21:07:39.615Z,4.75
2018-03-03T21:10:07.135Z,4.73
2018-03-03T21:12:37.135Z,4.73
2018-03-03T21:15:05.712Z,4.74
2018-03-03T21:17:33.250Z,4.77
2018-03-03T21:20:00.788Z,4.79
2018-03-03T21:22:28.608Z,4.77
2018-03-03T21:24:56.155Z,4.73
2018-03-03T21:27:23.744Z,4.79
2018-03-03T21:29:51.296Z,4.67
2018-03-03T21:32:18.821Z,4.68
2018-03-03T21:34:46.342Z,4.63
2018-03-03T21:37:13.880Z,4.65
2018-03-03T21:39:41.388Z,4.56
2018-03-03T21:42:08.898Z,4.50
2018-03-03T21:44:36.465Z,4.52
2018-03-03T21:47:03.981Z,4.48
2018-03-03T21:49:31.509Z,4.46
2018-03-03T21:51:59.081Z,4.52
2018-03-03T21:54:26.618Z,4.43
2018-03-03T21:56:54.202Z,4.40
2018-03-03T21:59:21.740Z,4.37
2018-03-03T22:01:49.286Z,4.36
2018-03-03T22:04:16.827Z,4.37
2018-03-03T22:06:44.366Z,4.30
2018-03-03T22:09:11.943Z,4.25
2018-03-03T22:11:39.488Z,4.21
2018-03-03T22:14:08.674Z,4.09
2018-03-03T22:16:36.209Z,4.08
2018-03-03T22:19:03.749Z,4.13
2018-03-03T22:21:31.397Z,4.12
2018-03-03T22:23:58.915Z,4.12
2018-03-03T22:26:32.815Z,4.10
2018-03-03T22:29:00.467Z,4.12
2018-03-03T22:31:28.043Z,4.09
2018-03-03T22:33:55.569Z,4.00
2018-03-03T22:36:34.209Z,4.00
2018-03-03T22:39:02.520Z,4.01
2018-03-03T22:41:30.081Z,4.06
2018-03-03T22:43:57.644Z,4.06
2018-03-03T22:46:26.507Z,4.01
2018-03-03T22:48:54.018Z,3.87
2018-03-03T22:51:21.583Z,3.98
2018-03-03T22:53:49.109Z,3.90
2018-03-03T22:56:16.655Z,3.84
2018-03-03T22:58:44.266Z,3.83
2018-03-03T23:01:11.805Z,3.83
2018-03-03T23:03:39.377Z,3.83
2018-03-03T23:06:16.647Z,3.87
2018-03-03T23:08:44.277Z,3.86
2018-03-03T23:11:11.830Z,3.80
2018-03-03T23:13:39.393Z,3.85
2018-03-03T23:16:06.924Z,3.86
2018-03-03T23:18:34.455Z,3.88
2018-03-03T23:21:19.906Z,3.98
2018-03-03T23:23:47.503Z,3.92
2018-03-03T23:26:15.034Z,3.92
2018-03-03T23:28:42.552Z,3.96
2018-03-03T23:31:10.104Z,3.99
2018-03-03T23:33:42.807Z,3.94
2018-03-03T23:36:10.343Z,3.93
2018-03-03T23:38:37.905Z,3.87
2018-03-03T23:41:05.454Z,3.88
2018-03-03T23:43:32.995Z,3.76
2018-03-03T23:46:00.530Z,3.69
2018-03-03T23:48:28.994Z,3.68
2018-03-03T23:50:56.545Z,3.73
2018-03-03T23:53:24.119Z,3.74
2018-03-03T23:55:51.632Z,3.79
2018-03-03T23:58:19.193Z,3.82
